German Bay — V2AI1 — position and weather

sailwx.info

Track history (hours):
 
Tides and Currents Weather Stations Pressure Air Temp Water Temp Dewpoint Dewpoint Depression Visibility Wind Speed Wind Dir Waves Ship Positions

German Bay

Last reported at 2017-Dec-11 16:59 UTC. Time now 2017-Dec-12 15:43 UTC.
Position N 43°26' E 004°54'.

Length 100 m; draft 4 m.

Type: Ship. MMSI: 304010763.

Date/timePositionNaut miles runAvg speedWind from/ knotsBaromVisibWave heightAir tempDewpointWater temp
2017-Dec-11 16:59N 43°26' E 004°54'0 0.0
2017-Dec-11 16:23N 43°26' E 004°54'0 0.0
2017-Dec-11 15:56N 43°26' E 004°54'0 0.0
2017-Dec-11 15:20N 43°26' E 004°54'0 0.0
2017-Dec-11 14:50N 43°26' E 004°54'0 0.0
2017-Dec-11 14:26N 43°26' E 004°54'0 0.0
2017-Dec-11 13:59N 43°26' E 004°54'0 0.0
2017-Dec-11 13:29N 43°26' E 004°54'0 0.0
2017-Dec-11 12:59N 43°26' E 004°54'0 0.0
2017-Dec-11 12:26N 43°26' E 004°54'0 0.0
2017-Dec-11 11:59N 43°26' E 004°54'0 0.0
2017-Dec-11 11:23N 43°26' E 004°54'0 0.0
2017-Dec-11 10:59N 43°26' E 004°54'0 0.0
2017-Dec-11 10:29N 43°26' E 004°54'0 0.0
2017-Dec-11 09:59N 43°26' E 004°54'0 0.0
2017-Dec-11 09:29N 43°26' E 004°54'0 0.0
2017-Dec-11 08:50N 43°26' E 004°54'0 0.0
2017-Dec-11 08:29N 43°26' E 004°54'0 0.0
2017-Dec-11 07:59N 43°26' E 004°54'0 0.0
2017-Dec-11 07:29N 43°26' E 004°54'0 0.0
2017-Dec-11 06:38N 43°26' E 004°54'0 0.0
2017-Dec-11 06:26N 43°26' E 004°54'0 0.0
2017-Dec-11 05:59N 43°26' E 004°54'0 0.0
2017-Dec-11 05:29N 43°26' E 004°54'0 0.0
2017-Dec-11 04:59N 43°26' E 004°54'0 0.0
2017-Dec-11 04:29N 43°26' E 004°54'0 0.0
2017-Dec-11 03:59N 43°26' E 004°54'0 0.0
2017-Dec-11 03:29N 43°26' E 004°54'0 0.0
2017-Dec-11 02:59N 43°26' E 004°54'0 0.0
2017-Dec-11 02:29N 43°26' E 004°54'0 0.0
2017-Dec-11 01:59N 43°26' E 004°54'0 0.0
2017-Dec-11 01:29N 43°26' E 004°54'0 0.0
2017-Dec-11 00:59N 43°26' E 004°54'0 0.0
2017-Dec-11 00:29N 43°26' E 004°54'0 0.0
2017-Dec-10 23:59N 43°26' E 004°54'0 0.0
2017-Dec-10 23:29N 43°26' E 004°54'0 0.0
2017-Dec-10 22:59N 43°26' E 004°54'0 0.0
2017-Dec-10 22:29N 43°26' E 004°54'0 0.0
2017-Dec-10 21:59N 43°26' E 004°54'0 0.0
2017-Dec-10 21:29N 43°26' E 004°54'0 0.0
2017-Dec-10 20:56N 43°26' E 004°54'0 0.0
2017-Dec-10 20:29N 43°26' E 004°54'0 0.0
2017-Dec-10 19:59N 43°26' E 004°54'1 1.6
2017-Dec-10 19:30N 43°25' E 004°53'611.4
2017-Dec-10 19:00N 43°21' E 004°59'510.7
2017-Dec-10 18:30N 43°16' E 005°01'1110.5
2017-Dec-10 17:29N 43°06' E 004°55'17811.6
2017-Dec-10 02:06N 41°05' E 001°58'412.2
2017-Dec-10 01:48N 41°03' E 001°54'412.1
2017-Dec-10 01:30N 41°01' E 001°50'13 0.4
2017-Dec-08 16:20N 40°60' E 001°33'310.4
2017-Dec-08 16:00N 41°01' E 001°37'5 9.8
2017-Dec-08 15:30N 41°03' E 001°43'5 9.6
2017-Dec-08 15:00N 41°05' E 001°49'5 9.4
2017-Dec-08 14:30N 41°07' E 001°55'5 9.5
2017-Dec-08 14:00N 41°08' E 002°01'16510.6
2017-Dec-07 22:28N 43°10' E 004°31'512.0
2017-Dec-07 22:01N 43°14' E 004°36'510.4
2017-Dec-07 21:31N 43°16' E 004°42'510.7
2017-Dec-07 21:01N 43°18' E 004°50'510.4
2017-Dec-07 20:30N 43°20' E 004°56'4 8.0
2017-Dec-07 20:01N 43°24' E 004°54'2 3.4
2017-Dec-07 19:28N 43°26' E 004°54'0 0.0
2017-Dec-07 18:58N 43°26' E 004°54'0 0.0
2017-Dec-07 18:28N 43°26' E 004°54'0 0.0
2017-Dec-07 17:58N 43°26' E 004°54'0 0.0
2017-Dec-07 17:28N 43°26' E 004°54'0 0.0
2017-Dec-07 16:58N 43°26' E 004°54'0 0.0
2017-Dec-07 16:28N 43°26' E 004°54'0 0.0
2017-Dec-07 15:58N 43°26' E 004°54'0 0.0
2017-Dec-07 15:28N 43°26' E 004°54'0 0.0
2017-Dec-07 14:58N 43°26' E 004°54'0 0.0
2017-Dec-07 14:28N 43°26' E 004°54'0 0.0
2017-Dec-07 13:58N 43°26' E 004°54'0 0.0
2017-Dec-07 13:28N 43°26' E 004°54'0 0.0
2017-Dec-07 12:58N 43°26' E 004°54'0 0.0
2017-Dec-07 12:28N 43°26' E 004°54'0 0.0
2017-Dec-07 11:58N 43°26' E 004°54'0 0.0
2017-Dec-07 11:28N 43°26' E 004°54'0 0.0
2017-Dec-07 10:58N 43°26' E 004°54'0 0.0
2017-Dec-07 10:28N 43°26' E 004°54'0 0.0
2017-Dec-07 09:58N 43°26' E 004°54'0 0.0
2017-Dec-07 09:28N 43°26' E 004°54'0 0.0
2017-Dec-07 08:58N 43°26' E 004°54'0 0.0
2017-Dec-07 08:25N 43°26' E 004°54'0 0.0
2017-Dec-07 07:58N 43°26' E 004°54'0 0.0
2017-Dec-07 07:28N 43°26' E 004°54'0 0.0
2017-Dec-07 06:58N 43°26' E 004°54'0 0.0
2017-Dec-07 06:28N 43°26' E 004°54'0 0.0
2017-Dec-07 05:58N 43°26' E 004°54'0 0.0
2017-Dec-07 05:28N 43°26' E 004°54'0 0.0
2017-Dec-07 04:58N 43°26' E 004°54'0 0.0
2017-Dec-07 04:19N 43°26' E 004°54'0 0.0
2017-Dec-07 03:58N 43°26' E 004°54'0 0.0
2017-Dec-07 03:28N 43°26' E 004°54'0 0.0
2017-Dec-07 02:58N 43°26' E 004°54'0 0.0
2017-Dec-07 02:28N 43°26' E 004°54'0 0.0
2017-Dec-07 01:58N 43°26' E 004°54'0 0.0
2017-Dec-07 01:28N 43°26' E 004°54'0 0.0
2017-Dec-07 00:58N 43°26' E 004°54'0 0.0
2017-Dec-07 00:28N 43°26' E 004°54'0 0.0
2017-Dec-06 23:58N 43°26' E 004°54'0 0.0
2017-Dec-06 23:28N 43°26' E 004°54'0 0.0
2017-Dec-06 22:58N 43°26' E 004°54'0 0.0
2017-Dec-06 22:28N 43°26' E 004°54'0 0.0
2017-Dec-06 21:58N 43°26' E 004°54'0 0.0
2017-Dec-06 21:28N 43°26' E 004°54'0 0.0
2017-Dec-06 20:58N 43°26' E 004°54'  
2017-Dec-04 10:31N 41°10' E 001°49'611.2
2017-Dec-04 10:00N 41°11' E 001°57'510.6
2017-Dec-04 09:30N 41°13' E 002°03'161 8.5
2017-Dec-03 14:36N 43°20' E 004°17'110.4
2017-Dec-03 14:30N 43°20' E 004°18'5 9.5
2017-Dec-03 14:00N 43°19' E 004°25'5 9.3
2017-Dec-03 13:30N 43°19' E 004°31'5 9.4
2017-Dec-03 13:00N 43°18' E 004°38'510.1
2017-Dec-03 12:30N 43°18' E 004°44'5 9.8
2017-Dec-03 12:00N 43°18' E 004°51'5 9.9
2017-Dec-03 11:30N 43°22' E 004°56'4 0.4
2017-Dec-03 01:56N 43°26' E 004°54'3 5.4
2017-Dec-03 01:28N 43°23' E 004°55'7 6.1
2017-Dec-03 00:20N 43°18' E 004°49'411.4
2017-Dec-03 00:00N 43°18' E 004°44'611.5
2017-Dec-02 23:30N 43°18' E 004°36'611.3
2017-Dec-02 23:00N 43°18' E 004°28'172 7.6
2017-Dec-02 00:19N 41°08' E 001°56'411.7
2017-Dec-01 23:59N 41°06' E 001°52'611.6
2017-Dec-01 23:30N 41°03' E 001°45'  
Track history (hours):
 
Tides and Currents Weather Stations Pressure Air Temp Water Temp Dewpoint Dewpoint Depression Visibility Wind Speed Wind Dir Waves Ship Positions

German Bay

Last reported at 2017-Dec-11 16:59 UTC. Time now 2017-Dec-12 15:43 UTC.
Position N 43°26' E 004°54'.

Length 100 m; draft 4 m.

Type: Ship. MMSI: 304010763.

Date/timePositionNaut miles runAvg speedWind from/ knotsBaromVisibWave heightAir tempDewpointWater temp
2017-Dec-11 16:59N 43°26' E 004°54'0 0.0
2017-Dec-11 16:23N 43°26' E 004°54'0 0.0
2017-Dec-11 15:56N 43°26' E 004°54'0 0.0
2017-Dec-11 15:20N 43°26' E 004°54'0 0.0
2017-Dec-11 14:50N 43°26' E 004°54'0 0.0
2017-Dec-11 14:26N 43°26' E 004°54'0 0.0
2017-Dec-11 13:59N 43°26' E 004°54'0 0.0
2017-Dec-11 13:29N 43°26' E 004°54'0 0.0
2017-Dec-11 12:59N 43°26' E 004°54'0 0.0
2017-Dec-11 12:26N 43°26' E 004°54'0 0.0
2017-Dec-11 11:59N 43°26' E 004°54'0 0.0
2017-Dec-11 11:23N 43°26' E 004°54'0 0.0
2017-Dec-11 10:59N 43°26' E 004°54'0 0.0
2017-Dec-11 10:29N 43°26' E 004°54'0 0.0
2017-Dec-11 09:59N 43°26' E 004°54'0 0.0
2017-Dec-11 09:29N 43°26' E 004°54'0 0.0
2017-Dec-11 08:50N 43°26' E 004°54'0 0.0
2017-Dec-11 08:29N 43°26' E 004°54'0 0.0
2017-Dec-11 07:59N 43°26' E 004°54'0 0.0
2017-Dec-11 07:29N 43°26' E 004°54'0 0.0
2017-Dec-11 06:38N 43°26' E 004°54'0 0.0
2017-Dec-11 06:26N 43°26' E 004°54'0 0.0
2017-Dec-11 05:59N 43°26' E 004°54'0 0.0
2017-Dec-11 05:29N 43°26' E 004°54'0 0.0
2017-Dec-11 04:59N 43°26' E 004°54'0 0.0
2017-Dec-11 04:29N 43°26' E 004°54'0 0.0
2017-Dec-11 03:59N 43°26' E 004°54'0 0.0
2017-Dec-11 03:29N 43°26' E 004°54'0 0.0
2017-Dec-11 02:59N 43°26' E 004°54'0 0.0
2017-Dec-11 02:29N 43°26' E 004°54'0 0.0
2017-Dec-11 01:59N 43°26' E 004°54'0 0.0
2017-Dec-11 01:29N 43°26' E 004°54'0 0.0
2017-Dec-11 00:59N 43°26' E 004°54'0 0.0
2017-Dec-11 00:29N 43°26' E 004°54'0 0.0
2017-Dec-10 23:59N 43°26' E 004°54'0 0.0
2017-Dec-10 23:29N 43°26' E 004°54'0 0.0
2017-Dec-10 22:59N 43°26' E 004°54'0 0.0
2017-Dec-10 22:29N 43°26' E 004°54'0 0.0
2017-Dec-10 21:59N 43°26' E 004°54'0 0.0
2017-Dec-10 21:29N 43°26' E 004°54'0 0.0
2017-Dec-10 20:56N 43°26' E 004°54'0 0.0
2017-Dec-10 20:29N 43°26' E 004°54'0 0.0
2017-Dec-10 19:59N 43°26' E 004°54'1 1.6
2017-Dec-10 19:30N 43°25' E 004°53'611.4
2017-Dec-10 19:00N 43°21' E 004°59'510.7
2017-Dec-10 18:30N 43°16' E 005°01'1110.5
2017-Dec-10 17:29N 43°06' E 004°55'17811.6
2017-Dec-10 02:06N 41°05' E 001°58'412.2
2017-Dec-10 01:48N 41°03' E 001°54'412.1
2017-Dec-10 01:30N 41°01' E 001°50'13 0.4
2017-Dec-08 16:20N 40°60' E 001°33'310.4
2017-Dec-08 16:00N 41°01' E 001°37'5 9.8
2017-Dec-08 15:30N 41°03' E 001°43'5 9.6
2017-Dec-08 15:00N 41°05' E 001°49'5 9.4
2017-Dec-08 14:30N 41°07' E 001°55'5 9.5
2017-Dec-08 14:00N 41°08' E 002°01'16510.6
2017-Dec-07 22:28N 43°10' E 004°31'512.0
2017-Dec-07 22:01N 43°14' E 004°36'510.4
2017-Dec-07 21:31N 43°16' E 004°42'510.7
2017-Dec-07 21:01N 43°18' E 004°50'510.4
2017-Dec-07 20:30N 43°20' E 004°56'4 8.0
2017-Dec-07 20:01N 43°24' E 004°54'2 3.4
2017-Dec-07 19:28N 43°26' E 004°54'0 0.0
2017-Dec-07 18:58N 43°26' E 004°54'0 0.0
2017-Dec-07 18:28N 43°26' E 004°54'0 0.0
2017-Dec-07 17:58N 43°26' E 004°54'0 0.0
2017-Dec-07 17:28N 43°26' E 004°54'0 0.0
2017-Dec-07 16:58N 43°26' E 004°54'0 0.0
2017-Dec-07 16:28N 43°26' E 004°54'0 0.0
2017-Dec-07 15:58N 43°26' E 004°54'0 0.0
2017-Dec-07 15:28N 43°26' E 004°54'0 0.0
2017-Dec-07 14:58N 43°26' E 004°54'0 0.0
2017-Dec-07 14:28N 43°26' E 004°54'0 0.0
2017-Dec-07 13:58N 43°26' E 004°54'0 0.0
2017-Dec-07 13:28N 43°26' E 004°54'0 0.0
2017-Dec-07 12:58N 43°26' E 004°54'0 0.0
2017-Dec-07 12:28N 43°26' E 004°54'0 0.0
2017-Dec-07 11:58N 43°26' E 004°54'0 0.0
2017-Dec-07 11:28N 43°26' E 004°54'0 0.0
2017-Dec-07 10:58N 43°26' E 004°54'0 0.0
2017-Dec-07 10:28N 43°26' E 004°54'0 0.0
2017-Dec-07 09:58N 43°26' E 004°54'0 0.0
2017-Dec-07 09:28N 43°26' E 004°54'0 0.0
2017-Dec-07 08:58N 43°26' E 004°54'0 0.0
2017-Dec-07 08:25N 43°26' E 004°54'0 0.0
2017-Dec-07 07:58N 43°26' E 004°54'0 0.0
2017-Dec-07 07:28N 43°26' E 004°54'0 0.0
2017-Dec-07 06:58N 43°26' E 004°54'0 0.0
2017-Dec-07 06:28N 43°26' E 004°54'0 0.0
2017-Dec-07 05:58N 43°26' E 004°54'0 0.0
2017-Dec-07 05:28N 43°26' E 004°54'0 0.0
2017-Dec-07 04:58N 43°26' E 004°54'0 0.0
2017-Dec-07 04:19N 43°26' E 004°54'0 0.0
2017-Dec-07 03:58N 43°26' E 004°54'0 0.0
2017-Dec-07 03:28N 43°26' E 004°54'0 0.0
2017-Dec-07 02:58N 43°26' E 004°54'0 0.0
2017-Dec-07 02:28N 43°26' E 004°54'0 0.0
2017-Dec-07 01:58N 43°26' E 004°54'0 0.0
2017-Dec-07 01:28N 43°26' E 004°54'0 0.0
2017-Dec-07 00:58N 43°26' E 004°54'0 0.0
2017-Dec-07 00:28N 43°26' E 004°54'0 0.0
2017-Dec-06 23:58N 43°26' E 004°54'0 0.0
2017-Dec-06 23:28N 43°26' E 004°54'0 0.0
2017-Dec-06 22:58N 43°26' E 004°54'0 0.0
2017-Dec-06 22:28N 43°26' E 004°54'0 0.0
2017-Dec-06 21:58N 43°26' E 004°54'0 0.0
2017-Dec-06 21:28N 43°26' E 004°54'0 0.0
2017-Dec-06 20:58N 43°26' E 004°54'  
2017-Dec-04 10:31N 41°10' E 001°49'611.2
2017-Dec-04 10:00N 41°11' E 001°57'510.6
2017-Dec-04 09:30N 41°13' E 002°03'161 8.5
2017-Dec-03 14:36N 43°20' E 004°17'110.4
2017-Dec-03 14:30N 43°20' E 004°18'5 9.5
2017-Dec-03 14:00N 43°19' E 004°25'5 9.3
2017-Dec-03 13:30N 43°19' E 004°31'5 9.4
2017-Dec-03 13:00N 43°18' E 004°38'510.1
2017-Dec-03 12:30N 43°18' E 004°44'5 9.8
2017-Dec-03 12:00N 43°18' E 004°51'5 9.9
2017-Dec-03 11:30N 43°22' E 004°56'4 0.4
2017-Dec-03 01:56N 43°26' E 004°54'3 5.4
2017-Dec-03 01:28N 43°23' E 004°55'7 6.1
2017-Dec-03 00:20N 43°18' E 004°49'411.4
2017-Dec-03 00:00N 43°18' E 004°44'611.5
2017-Dec-02 23:30N 43°18' E 004°36'611.3
2017-Dec-02 23:00N 43°18' E 004°28'172 7.6
2017-Dec-02 00:19N 41°08' E 001°56'411.7
2017-Dec-01 23:59N 41°06' E 001°52'611.6
2017-Dec-01 23:30N 41°03' E 001°45'  

Dump ship's entire track history